Time;durP1;ratioP1;P1;durP2;ratioP2;P2;SDS_P1;SDS_P2;PMS_P1;PMS_P2;Temp;Humidity;BMP_temperature;BMP_pressure;BME280_temperature;BME280_humidity;BME280_pressure;Samples;Min_cycle;Max_cycle;Signal;HPM_P1;HPM_P2
2021/01/05 00:02:04;;;;;;;22.00;17.03;;;6.50;99.90;;;;;;6277483;28;20469;-57
2021/01/05 00:05:08;;;;;;;22.70;16.00;;;6.60;99.90;;;;;;6277774;28;20477;-58
2021/01/05 00:08:10;;;;;;;22.93;16.50;;;6.60;99.90;;;;;;6277916;28;20470;-57
2021/01/05 00:11:13;;;;;;;20.90;15.77;;;6.60;99.90;;;;;;6262384;28;20553;-57
2021/01/05 00:14:15;;;;;;;19.00;15.13;;;6.60;99.90;;;;;;6252859;28;20479;-58
2021/01/05 00:17:21;;;;;;;20.43;14.60;;;6.60;99.90;;;;;;6252951;28;20481;-58
2021/01/05 00:20:27;;;;;;;20.10;17.20;;;6.50;99.90;;;;;;6252847;28;20475;-58
2021/01/05 00:23:29;;;;;;;20.93;16.93;;;6.50;99.90;;;;;;6252472;28;20994;-58
2021/01/05 00:26:34;;;;;;;21.87;17.17;;;6.50;99.90;;;;;;6265695;28;20466;-61
2021/01/05 00:29:36;;;;;;;23.47;16.80;;;6.40;99.90;;;;;;6277203;28;20470;-58
2021/01/05 00:32:42;;;;;;;24.57;18.57;;;6.40;99.90;;;;;;6277010;28;21012;-57
2021/01/05 00:35:44;;;;;;;21.40;16.63;;;6.40;99.90;;;;;;6277093;28;20466;-57
2021/01/05 00:38:47;;;;;;;26.40;17.33;;;6.40;99.90;;;;;;6276726;28;20474;-57
2021/01/05 00:41:49;;;;;;;22.87;17.00;;;6.30;99.90;;;;;;6276637;28;20481;-58
2021/01/05 00:44:51;;;;;;;25.63;16.97;;;6.40;99.90;;;;;;6276801;28;20901;-58
2021/01/05 00:47:54;;;;;;;23.60;17.60;;;6.30;99.90;;;;;;6276844;28;20470;-57
2021/01/05 00:50:56;;;;;;;27.50;18.50;;;6.40;99.90;;;;;;6276519;28;20470;-58
2021/01/05 00:53:58;;;;;;;26.60;18.00;;;6.40;99.90;;;;;;6267210;28;20479;-57
2021/01/05 00:57:02;;;;;;;25.13;16.30;;;6.40;99.90;;;;;;6276122;28;20473;-58
2021/01/05 01:00:07;;;;;;;23.17;16.17;;;6.20;99.90;;;;;;6276322;28;20474;-58
2021/01/05 01:03:10;;;;;;;22.90;16.30;;;6.20;99.90;;;;;;6276357;28;20489;-57
2021/01/05 01:06:12;;;;;;;25.40;17.67;;;6.20;99.90;;;;;;6276373;28;20466;-58
2021/01/05 01:09:17;;;;;;;22.40;16.80;;;6.20;99.90;;;;;;6275890;28;21010;-59
2021/01/05 01:12:21;;;;;;;20.53;17.47;;;6.20;99.90;;;;;;6251484;28;20971;-59
2021/01/05 01:15:25;;;;;;;26.97;16.20;;;6.20;99.90;;;;;;6251079;28;20486;-58
2021/01/05 01:18:29;;;;;;;22.53;15.07;;;6.10;99.90;;;;;;6251272;28;20982;-58
2021/01/05 01:21:31;;;;;;;25.83;15.90;;;6.10;99.90;;;;;;6269590;28;20818;-58
2021/01/05 01:24:36;;;;;;;21.60;14.80;;;6.20;99.90;;;;;;6275818;28;20470;-57
2021/01/05 01:27:53;;;;;;;20.70;15.20;;;6.30;99.90;;;;;;6275610;28;20807;-57
2021/01/05 01:30:55;;;;;;;23.97;15.20;;;6.40;99.90;;;;;;6275415;28;20486;-58
2021/01/05 01:33:58;;;;;;;21.17;14.03;;;6.40;99.90;;;;;;6275451;28;20470;-57
2021/01/05 01:37:03;;;;;;;20.37;13.77;;;6.50;99.90;;;;;;6275526;28;20470;-58
2021/01/05 01:40:07;;;;;;;23.67;15.20;;;6.50;99.90;;;;;;6275393;28;20478;-59
2021/01/05 01:43:09;;;;;;;21.90;14.93;;;6.60;99.90;;;;;;6275159;28;21027;-61
2021/01/05 01:46:13;;;;;;;21.57;15.70;;;6.70;99.90;;;;;;6275278;28;20474;-58
2021/01/05 01:49:16;;;;;;;21.83;14.00;;;6.70;99.90;;;;;;6275211;28;20481;-58
2021/01/05 01:52:30;;;;;;;24.90;14.80;;;6.70;99.90;;;;;;6275143;28;20577;-58
2021/01/05 01:55:38;;;;;;;20.50;13.67;;;6.80;99.90;;;;;;6275072;28;20470;-61
2021/01/05 01:58:55;;;;;;;22.37;14.40;;;6.80;99.90;;;;;;6299141;28;20430;-59
2021/01/05 02:01:59;;;;;;;18.83;13.23;;;6.80;99.90;;;;;;6275007;28;20478;-58
2021/01/05 02:05:10;;;;;;;19.67;14.27;;;6.80;99.90;;;;;;6275125;28;20462;-58
2021/01/05 02:08:22;;;;;;;21.03;14.03;;;6.80;99.90;;;;;;6274594;28;20481;-58
2021/01/05 02:11:44;;;;;;;20.17;14.40;;;6.70;99.90;;;;;;6258157;28;20472;-58
2021/01/05 02:14:58;;;;;;;18.67;12.97;;;6.60;99.90;;;;;;6249850;28;20471;-58
2021/01/05 02:18:18;;;;;;;19.90;14.60;;;6.60;99.90;;;;;;6250074;28;20471;-58
2021/01/05 02:21:25;;;;;;;26.37;17.00;;;6.60;99.90;;;;;;6267058;28;20466;-58
2021/01/05 02:24:41;;;;;;;25.73;16.00;;;6.50;99.90;;;;;;6274708;28;20481;-57
2021/01/05 02:27:49;;;;;;;27.27;16.03;;;6.60;99.90;;;;;;6274703;28;20478;-57
2021/01/05 02:30:59;;;;;;;23.70;16.90;;;6.50;99.90;;;;;;6274400;28;20471;-57
2021/01/05 02:34:07;;;;;;;28.17;17.73;;;6.50;99.90;;;;;;6274384;28;20863;-58
2021/01/05 02:37:20;;;;;;;28.63;17.70;;;6.50;99.90;;;;;;6274329;28;20481;-57
2021/01/05 02:40:46;;;;;;;26.20;16.80;;;6.40;99.90;;;;;;6274455;28;20493;-57
2021/01/05 02:44:18;;;;;;;31.27;17.93;;;6.40;99.90;;;;;;6299183;28;20450;-58
2021/01/05 02:47:46;;;;;;;25.67;15.60;;;6.40;99.90;;;;;;6298980;28;20465;-58
2021/01/05 02:51:25;;;;;;;31.37;18.70;;;6.30;99.90;;;;;;6272454;28;20543;-58
2021/01/05 02:55:13;;;;;;;25.17;16.80;;;6.20;99.90;;;;;;6273747;28;20470;-57
2021/01/05 02:58:42;;;;;;;29.67;18.33;;;6.20;99.90;;;;;;6299063;28;20465;-57
2021/01/05 03:02:11;;;;;;;29.30;17.20;;;6.30;99.90;;;;;;6292613;28;20477;-57
2021/01/05 03:05:13;;;;;;;28.30;17.30;;;6.30;99.90;;;;;;6294380;28;20478;-57
2021/01/05 03:08:22;;;;;;;21.83;16.80;;;6.30;99.90;;;;;;6295332;28;20560;-57
2021/01/05 03:11:32;;;;;;;27.17;15.70;;;6.30;99.90;;;;;;6292621;28;20961;-56
2021/01/05 03:14:44;;;;;;;26.23;14.80;;;6.30;99.90;;;;;;6295038;28;20466;-56
2021/01/05 03:17:50;;;;;;;21.70;15.63;;;6.30;99.90;;;;;;6293966;28;20782;-56
2021/01/05 03:21:00;;;;;;;25.73;17.43;;;6.30;99.90;;;;;;6301690;28;20477;-56
2021/01/05 03:24:03;;;;;;;24.33;17.20;;;6.30;99.90;;;;;;6299395;28;20488;-56
2021/01/05 03:27:07;;;;;;;25.73;17.20;;;6.30;99.90;;;;;;6301342;28;20812;-56
2021/01/05 03:30:13;;;;;;;22.70;16.07;;;6.40;99.90;;;;;;6301058;28;20894;-56
2021/01/05 03:33:16;;;;;;;20.83;15.10;;;6.40;99.90;;;;;;6299099;28;20462;-56
2021/01/05 03:36:19;;;;;;;26.93;17.47;;;6.40;99.90;;;;;;6300396;28;20480;-56
2021/01/05 03:39:21;;;;;;;23.30;17.30;;;6.40;99.90;;;;;;6298479;28;20470;-56
2021/01/05 03:42:23;;;;;;;23.30;16.10;;;6.50;99.90;;;;;;6300654;28;20465;-56
2021/01/05 03:45:27;;;;;;;22.80;15.20;;;6.40;99.90;;;;;;6301364;28;20796;-56
2021/01/05 03:48:31;;;;;;;21.23;15.73;;;6.40;99.90;;;;;;6301614;28;20473;-56
2021/01/05 03:51:33;;;;;;;20.07;15.43;;;6.40;99.90;;;;;;6301930;28;20469;-56
2021/01/05 03:54:35;;;;;;;20.97;15.63;;;6.40;99.90;;;;;;6301706;28;20819;-56
2021/01/05 03:57:37;;;;;;;24.93;16.70;;;6.30;99.90;;;;;;6301468;28;20961;-56
2021/01/05 04:00:39;;;;;;;22.30;16.80;;;6.30;99.90;;;;;;6301255;28;20960;-56
2021/01/05 04:03:44;;;;;;;23.17;15.77;;;6.30;99.90;;;;;;6301463;28;20809;-57
2021/01/05 04:06:47;;;;;;;22.50;17.00;;;6.30;99.90;;;;;;6297056;28;20465;-56
2021/01/05 04:09:50;;;;;;;22.00;15.20;;;6.30;99.90;;;;;;6301407;28;20479;-56
2021/01/05 04:12:52;;;;;;;21.63;15.47;;;6.30;99.90;;;;;;6301296;28;20473;-57
2021/01/05 04:15:57;;;;;;;21.93;16.17;;;6.30;99.90;;;;;;6301273;28;21054;-56
2021/01/05 04:19:01;;;;;;;24.17;17.30;;;6.20;99.90;;;;;;6301338;28;20799;-56
2021/01/05 04:22:03;;;;;;;21.60;16.33;;;6.20;99.90;;;;;;6300919;28;20485;-56
2021/01/05 04:25:08;;;;;;;23.23;17.03;;;6.30;99.90;;;;;;6301077;28;20969;-56
2021/01/05 04:28:11;;;;;;;21.87;15.80;;;6.30;99.90;;;;;;6300815;28;20484;-56
2021/01/05 04:31:13;;;;;;;20.10;15.00;;;6.20;99.90;;;;;;6300071;28;20480;-56
2021/01/05 04:34:16;;;;;;;23.23;16.53;;;6.30;99.90;;;;;;6300881;28;20492;-56
2021/01/05 04:37:19;;;;;;;22.50;16.47;;;6.30;99.90;;;;;;6300827;28;20472;-56
2021/01/05 04:40:27;;;;;;;18.90;14.80;;;6.30;99.90;;;;;;6301665;28;20473;-56
2021/01/05 04:43:50;;;;;;;23.10;15.53;;;6.30;99.90;;;;;;6301737;28;20480;-56
2021/01/05 04:47:04;;;;;;;22.60;15.70;;;6.30;99.90;;;;;;6301798;28;20771;-56
2021/01/05 04:50:11;;;;;;;19.47;15.37;;;6.30;99.90;;;;;;6301797;28;20476;-56
2021/01/05 04:53:18;;;;;;;21.60;15.90;;;6.20;99.90;;;;;;6301581;28;20784;-56
2021/01/05 04:56:27;;;;;;;19.47;15.87;;;6.10;99.90;;;;;;6301491;28;20786;-56
2021/01/05 04:59:37;;;;;;;20.60;16.00;;;6.10;99.90;;;;;;6301594;28;20473;-56
2021/01/05 05:02:49;;;;;;;19.30;16.60;;;6.10;99.90;;;;;;6301489;28;20576;-56
2021/01/05 05:06:16;;;;;;;21.60;15.87;;;6.10;99.90;;;;;;6301267;28;20813;-56
2021/01/05 05:09:34;;;;;;;21.00;15.80;;;6.00;99.90;;;;;;6288755;28;20470;-56
2021/01/05 05:12:45;;;;;;;20.57;15.70;;;6.10;99.90;;;;;;6296406;28;20969;-56
2021/01/05 05:15:51;;;;;;;20.00;15.90;;;6.00;99.90;;;;;;6301072;28;20497;-56
2021/01/05 05:19:08;;;;;;;22.10;15.43;;;6.00;99.90;;;;;;6301562;28;20469;-56
2021/01/05 05:22:16;;;;;;;17.50;15.70;;;5.80;99.90;;;;;;6300591;28;20969;-56
2021/01/05 05:25:25;;;;;;;22.87;15.43;;;5.80;99.90;;;;;;6300640;28;21039;-56
2021/01/05 05:28:35;;;;;;;20.57;15.20;;;5.80;99.90;;;;;;6300608;28;20477;-56
2021/01/05 05:31:37;;;;;;;24.87;16.97;;;5.80;99.90;;;;;;6300577;28;20469;-56
2021/01/05 05:34:50;;;;;;;19.53;15.97;;;5.90;99.90;;;;;;6300062;28;20462;-60
2021/01/05 05:38:00;;;;;;;25.93;17.93;;;5.90;99.90;;;;;;6300759;28;20422;-57
2021/01/05 05:41:13;;;;;;;23.47;16.70;;;5.80;99.90;;;;;;6300561;28;20457;-57
2021/01/05 05:44:24;;;;;;;22.83;17.87;;;5.80;99.90;;;;;;6299894;28;20465;-56
2021/01/05 05:47:31;;;;;;;20.30;16.70;;;5.70;99.90;;;;;;6300161;28;20474;-56
2021/01/05 05:50:44;;;;;;;27.70;17.07;;;5.70;99.90;;;;;;6299917;28;20929;-58
2021/01/05 05:53:51;;;;;;;24.20;17.97;;;5.70;99.90;;;;;;6300172;28;20466;-56
2021/01/05 05:57:22;;;;;;;23.20;17.00;;;5.70;99.90;;;;;;6300188;28;20466;-56
2021/01/05 06:00:37;;;;;;;19.13;14.37;;;5.70;99.90;;;;;;6278738;28;20821;-56
2021/01/05 06:03:39;;;;;;;18.10;15.57;;;5.80;99.90;;;;;;6299905;28;20979;-56
2021/01/05 06:06:46;;;;;;;23.20;17.20;;;5.80;99.90;;;;;;6300200;28;20483;-56
2021/01/05 06:09:49;;;;;;;21.80;16.30;;;5.70;99.90;;;;;;6299750;28;20473;-56
2021/01/05 06:12:52;;;;;;;24.63;17.73;;;5.70;99.90;;;;;;6299599;28;20965;-56
2021/01/05 06:15:54;;;;;;;25.60;18.80;;;5.70;99.90;;;;;;6290543;28;20941;-56
2021/01/05 06:18:56;;;;;;;24.03;17.20;;;5.60;99.90;;;;;;6299153;28;20469;-56
2021/01/05 06:21:59;;;;;;;26.20;17.67;;;5.60;99.90;;;;;;6298876;28;20469;-56
2021/01/05 06:25:02;;;;;;;24.77;18.17;;;5.50;99.90;;;;;;6299617;28;20496;-56
2021/01/05 06:28:05;;;;;;;25.07;20.00;;;5.50;99.90;;;;;;6299405;28;20465;-56
2021/01/05 06:31:07;;;;;;;26.23;19.20;;;5.50;99.90;;;;;;6299701;28;20480;-56
2021/01/05 06:34:09;;;;;;;23.53;17.23;;;5.60;99.90;;;;;;6299420;28;20484;-56
2021/01/05 06:37:11;;;;;;;25.67;18.10;;;5.60;99.90;;;;;;6299365;28;20469;-56
2021/01/05 06:40:15;;;;;;;23.10;18.83;;;5.60;99.90;;;;;;6299830;28;20481;-56
2021/01/05 06:43:17;;;;;;;23.77;17.70;;;5.50;99.90;;;;;;6299509;28;20473;-56
2021/01/05 06:46:20;;;;;;;26.60;17.97;;;5.60;99.90;;;;;;6299609;28;20480;-56
2021/01/05 06:49:26;;;;;;;24.47;17.20;;;5.50;99.90;;;;;;6299206;28;20473;-56
2021/01/05 06:52:28;;;;;;;22.77;15.10;;;5.50;99.90;;;;;;6299132;28;20818;-56
2021/01/05 06:55:31;;;;;;;20.03;15.87;;;5.50;99.90;;;;;;6303580;28;20473;-56
2021/01/05 06:58:33;;;;;;;22.27;18.30;;;5.60;99.90;;;;;;6304045;28;21016;-56
2021/01/05 07:01:36;;;;;;;19.27;16.03;;;5.60;99.90;;;;;;6303960;28;20820;-56
2021/01/05 07:04:38;;;;;;;20.73;13.77;;;5.50;99.90;;;;;;6304147;28;20480;-56
2021/01/05 07:07:40;;;;;;;19.10;14.77;;;5.50;99.90;;;;;;6304086;28;20449;-56
2021/01/05 07:10:43;;;;;;;18.57;12.80;;;5.60;99.90;;;;;;6304201;28;20457;-57
2021/01/05 07:13:45;;;;;;;21.90;15.30;;;5.70;99.90;;;;;;6303396;28;20441;-57
2021/01/05 07:16:48;;;;;;;19.50;13.73;;;5.70;99.90;;;;;;6299385;28;20456;-59
2021/01/05 07:19:50;;;;;;;16.80;13.27;;;5.80;99.90;;;;;;6303505;28;20451;-56
2021/01/05 07:22:52;;;;;;;19.43;14.07;;;5.90;99.90;;;;;;6303433;28;20476;-56
2021/01/05 07:25:57;;;;;;;16.87;12.83;;;5.90;99.90;;;;;;6303622;28;20441;-56
2021/01/05 07:29:00;;;;;;;18.20;14.03;;;5.90;99.90;;;;;;6303273;28;20434;-56
2021/01/05 07:32:02;;;;;;;18.17;13.70;;;6.00;99.90;;;;;;6303509;28;20472;-56
2021/01/05 07:35:06;;;;;;;23.77;15.37;;;6.00;99.90;;;;;;6303214;28;20980;-55
2021/01/05 07:38:12;;;;;;;17.80;13.07;;;6.00;99.90;;;;;;6303511;28;20461;-56
2021/01/05 07:41:15;;;;;;;17.90;13.60;;;6.10;99.90;;;;;;6303406;28;20480;-56
2021/01/05 07:44:17;;;;;;;18.47;14.23;;;6.00;99.90;;;;;;6302870;28;20469;-56
2021/01/05 07:47:24;;;;;;;21.03;14.97;;;6.00;99.90;;;;;;6303330;28;20518;-56
2021/01/05 07:50:26;;;;;;;17.10;14.43;;;5.90;99.90;;;;;;6303141;28;20488;-58
2021/01/05 07:53:30;;;;;;;17.83;13.97;;;5.80;99.90;;;;;;6303020;28;20864;-56
2021/01/05 07:56:33;;;;;;;17.63;13.90;;;5.90;99.90;;;;;;6302875;28;20462;-56
2021/01/05 07:59:35;;;;;;;30.80;13.80;;;6.00;99.90;;;;;;6302482;28;20776;-56
2021/01/05 08:02:37;;;;;;;12.77;11.43;;;6.00;99.90;;;;;;6302624;28;20477;-56
2021/01/05 08:05:41;;;;;;;14.97;11.47;;;5.90;99.90;;;;;;6301903;28;20531;-56
2021/01/05 08:08:43;;;;;;;15.10;11.90;;;5.90;99.90;;;;;;6302389;28;20473;-56
2021/01/05 08:11:46;;;;;;;13.80;11.53;;;6.00;99.90;;;;;;6302454;28;20807;-56
2021/01/05 08:14:48;;;;;;;16.53;13.20;;;6.00;99.90;;;;;;6302010;28;20469;-57
2021/01/05 08:17:51;;;;;;;14.37;12.83;;;6.00;99.90;;;;;;6302755;28;20469;-57
2021/01/05 08:20:56;;;;;;;14.50;10.93;;;6.00;99.90;;;;;;6297975;28;20473;-57
2021/01/05 08:23:58;;;;;;;13.83;11.40;;;6.00;99.90;;;;;;6302296;28;20477;-57
2021/01/05 08:27:01;;;;;;;14.30;11.63;;;6.00;99.90;;;;;;6302514;28;20881;-57
2021/01/05 08:30:06;;;;;;;11.80;10.03;;;6.10;99.90;;;;;;6302136;28;20470;-57
2021/01/05 08:33:12;;;;;;;12.20;10.33;;;6.30;99.90;;;;;;6302062;28;20469;-57
2021/01/05 08:36:14;;;;;;;14.50;8.97;;;6.40;99.90;;;;;;6302023;28;20469;-57
2021/01/05 08:39:16;;;;;;;15.57;10.73;;;6.30;99.90;;;;;;6301824;28;20552;-57
2021/01/05 08:42:19;;;;;;;10.67;9.50;;;6.40;99.90;;;;;;6301271;28;20817;-57
2021/01/05 08:45:22;;;;;;;11.17;9.00;;;6.60;99.90;;;;;;6301504;28;20813;-57
2021/01/05 08:48:24;;;;;;;13.00;9.50;;;6.70;99.90;;;;;;6301579;28;20979;-57
2021/01/05 08:51:26;;;;;;;12.13;8.70;;;7.00;99.90;;;;;;6301459;28;20473;-57
2021/01/05 08:54:29;;;;;;;10.03;8.90;;;7.30;99.90;;;;;;6301451;28;20469;-57
2021/01/05 08:57:31;;;;;;;10.90;9.00;;;7.50;99.90;;;;;;6301203;28;20815;-57
2021/01/05 09:00:34;;;;;;;10.17;8.23;;;7.70;99.90;;;;;;6301228;28;20488;-57
2021/01/05 09:03:36;;;;;;;9.57;8.00;;;7.90;99.90;;;;;;6301243;28;20476;-57
2021/01/05 09:06:38;;;;;;;11.20;8.87;;;7.90;99.90;;;;;;6301041;28;20473;-57
2021/01/05 09:09:40;;;;;;;11.50;8.50;;;7.90;99.90;;;;;;6301460;28;20484;-57
2021/01/05 09:12:44;;;;;;;10.47;9.40;;;8.00;99.90;;;;;;6300806;28;20957;-57
2021/01/05 09:15:46;;;;;;;15.50;10.37;;;8.00;99.90;;;;;;6300903;28;20492;-57
2021/01/05 09:18:50;;;;;;;11.63;9.60;;;8.00;99.90;;;;;;6300588;28;20476;-57
2021/01/05 09:21:52;;;;;;;12.10;10.07;;;8.10;99.90;;;;;;6300494;28;20999;-57
2021/01/05 09:24:55;;;;;;;12.73;11.30;;;8.00;99.90;;;;;;6300832;28;20473;-57
2021/01/05 09:28:00;;;;;;;12.93;11.43;;;8.00;99.90;;;;;;6300831;28;20603;-57
2021/01/05 09:31:03;;;;;;;12.90;11.37;;;7.70;99.90;;;;;;6300678;28;20473;-57
2021/01/05 09:34:05;;;;;;;14.73;11.80;;;7.30;99.90;;;;;;6300816;28;20567;-57
2021/01/05 09:37:08;;;;;;;11.90;10.70;;;7.60;99.90;;;;;;6300384;28;20566;-58
2021/01/05 09:40:11;;;;;;;14.33;11.77;;;8.00;99.90;;;;;;6300483;28;20473;-57
2021/01/05 09:43:14;;;;;;;13.27;11.87;;;8.00;99.90;;;;;;6300283;28;20469;-57
2021/01/05 09:46:17;;;;;;;15.47;12.07;;;7.90;99.90;;;;;;6300002;28;20995;-57
2021/01/05 09:49:20;;;;;;;14.23;12.63;;;7.70;99.90;;;;;;6293074;28;20478;-57
2021/01/05 09:52:24;;;;;;;12.97;11.27;;;7.60;99.90;;;;;;6294259;28;20465;-57
2021/01/05 09:55:26;;;;;;;14.80;13.23;;;7.50;99.90;;;;;;6296643;28;20470;-57
2021/01/05 09:58:29;;;;;;;19.70;13.57;;;7.60;99.90;;;;;;6293694;28;20465;-56
2021/01/05 10:01:33;;;;;;;12.87;11.57;;;7.70;99.90;;;;;;6298744;28;20827;-57
2021/01/05 10:04:35;;;;;;;14.57;13.07;;;7.80;99.90;;;;;;6299137;28;20465;-57
2021/01/05 10:07:37;;;;;;;13.83;11.83;;;7.90;99.90;;;;;;6298889;28;20479;-57
2021/01/05 10:10:39;;;;;;;14.80;12.63;;;8.00;99.90;;;;;;6298736;28;20552;-56
2021/01/05 10:13:42;;;;;;;16.57;14.87;;;8.00;99.90;;;;;;6298938;28;20469;-57
2021/01/05 10:16:45;;;;;;;14.50;13.00;;;8.00;99.90;;;;;;6273979;28;20446;-57
2021/01/05 10:19:47;;;;;;;15.40;13.10;;;7.90;99.90;;;;;;6273540;28;20426;-58
2021/01/05 10:22:51;;;;;;;14.57;12.43;;;8.10;99.90;;;;;;6272374;28;20480;-57
2021/01/05 10:25:53;;;;;;;16.50;14.00;;;8.30;99.90;;;;;;6271621;28;20887;-57
2021/01/05 10:28:59;;;;;;;14.77;13.27;;;8.20;99.90;;;;;;6264699;28;20431;-57
2021/01/05 10:32:02;;;;;;;15.57;12.07;;;8.10;99.90;;;;;;6273738;28;20452;-57
2021/01/05 10:35:06;;;;;;;14.77;11.87;;;8.00;99.90;;;;;;6273750;28;20515;-57
2021/01/05 10:38:08;;;;;;;16.93;14.30;;;8.00;99.90;;;;;;6271271;28;20972;-57
2021/01/05 10:41:10;;;;;;;12.77;11.57;;;8.00;99.90;;;;;;6273584;28;20470;-57
2021/01/05 10:44:15;;;;;;;13.20;11.83;;;8.00;99.90;;;;;;6273547;28;20469;-57
2021/01/05 10:47:17;;;;;;;15.10;12.70;;;8.20;99.90;;;;;;6272510;28;20798;-57
2021/01/05 10:50:23;;;;;;;13.50;12.07;;;8.40;99.90;;;;;;6271038;28;20478;-57
2021/01/05 10:53:27;;;;;;;14.80;13.30;;;8.50;99.90;;;;;;6272989;28;20798;-57
2021/01/05 10:56:29;;;;;;;13.90;12.53;;;8.40;99.90;;;;;;6274181;28;20481;-57
2021/01/05 10:59:33;;;;;;;15.90;12.87;;;8.50;99.90;;;;;;6273836;28;20469;-57
2021/01/05 11:02:38;;;;;;;13.80;12.40;;;8.50;99.90;;;;;;6273111;28;20462;-57
2021/01/05 11:05:41;;;;;;;12.40;11.20;;;8.80;99.90;;;;;;6273503;28;20533;-57
2021/01/05 11:08:44;;;;;;;10.60;9.27;;;9.30;99.90;;;;;;6273467;28;21012;-57
2021/01/05 11:11:47;;;;;;;9.50;8.60;;;9.50;99.90;;;;;;6273541;28;20982;-57
2021/01/05 11:14:50;;;;;;;9.53;8.73;;;9.70;99.90;;;;;;6272230;28;20816;-57
2021/01/05 11:17:53;;;;;;;8.63;7.83;;;9.60;99.80;;;;;;6272835;28;20454;-57
2021/01/05 11:20:55;;;;;;;8.00;7.20;;;10.00;99.10;;;;;;6273919;28;20478;-57
2021/01/05 11:23:58;;;;;;;7.93;7.13;;;11.60;98.30;;;;;;6265779;28;20548;-58
2021/01/05 11:27:02;;;;;;;8.90;8.10;;;14.10;93.80;;;;;;6249320;28;20467;-57
2021/01/05 11:30:06;;;;;;;7.40;6.80;;;16.10;88.90;;;;;;6249264;28;20471;-57
2021/01/05 11:33:09;;;;;;;8.70;7.80;;;16.20;79.00;;;;;;6240657;28;20474;-57
2021/01/05 11:36:11;;;;;;;8.77;7.97;;;15.30;78.80;;;;;;6248918;28;20819;-57
2021/01/05 11:39:14;;;;;;;7.43;6.83;;;14.30;80.20;;;;;;6266087;28;20800;-57
2021/01/05 11:42:18;;;;;;;7.63;6.93;;;14.50;81.00;;;;;;6276478;28;20470;-57
2021/01/05 11:45:22;;;;;;;7.73;7.03;;;15.30;77.10;;;;;;6276403;28;20492;-57
2021/01/05 11:48:24;;;;;;;7.30;6.70;;;17.30;76.70;;;;;;6273743;28;20496;-58
2021/01/05 11:51:28;;;;;;;8.00;7.30;;;21.00;63.90;;;;;;6272958;28;20485;-58
2021/01/05 11:54:31;;;;;;;7.70;7.10;;;23.80;50.70;;;;;;6276210;28;20232;-58
2021/01/05 11:57:33;;;;;;;7.13;6.53;;;26.90;42.30;;;;;;6273139;28;20671;-58
2021/01/05 12:00:36;;;;;;;13.83;12.70;;;28.90;36.70;;;;;;6273553;28;20686;-58
2021/01/05 12:03:38;;;;;;;8.97;8.37;;;30.50;31.80;;;;;;6276026;28;20564;-58
2021/01/05 12:06:45;;;;;;;10.47;9.67;;;30.40;29.80;;;;;;6275931;28;20555;-58
2021/01/05 12:09:48;;;;;;;10.17;9.47;;;27.50;31.20;;;;;;6276208;28;20231;-67
2021/01/05 12:12:50;;;;;;;8.33;7.63;;;24.30;34.60;;;;;;6277072;28;20220;-58
2021/01/05 12:15:54;;;;;;;8.10;7.40;;;23.20;37.50;;;;;;6277594;28;20301;-58
2021/01/05 12:18:58;;;;;;;9.40;8.10;;;24.40;37.10;;;;;;6277773;28;20242;-60
2021/01/05 12:22:03;;;;;;;8.20;7.60;;;25.80;35.40;;;;;;6276781;28;20242;-59
2021/01/05 12:25:06;;;;;;;8.40;7.70;;;27.20;33.10;;;;;;6276990;28;20263;-60
2021/01/05 12:28:08;;;;;;;7.20;6.70;;;27.00;32.60;;;;;;6277255;28;20575;-59
2021/01/05 12:31:17;;;;;;;6.97;6.37;;;27.70;32.60;;;;;;6276592;28;20224;-59
2021/01/05 12:34:22;;;;;;;7.87;7.27;;;28.10;30.70;;;;;;6276816;28;20227;-59
2021/01/05 12:37:25;;;;;;;7.90;7.30;;;27.80;31.40;;;;;;6272405;28;20666;-59
2021/01/05 12:40:27;;;;;;;8.00;7.30;;;28.10;30.80;;;;;;6276808;28;20254;-60
2021/01/05 12:43:29;;;;;;;7.50;6.90;;;28.30;30.00;;;;;;6276601;28;20224;-60
2021/01/05 12:46:34;;;;;;;8.83;7.60;;;27.70;30.10;;;;;;6276798;28;20239;-59
2021/01/05 12:49:36;;;;;;;8.50;7.70;;;27.50;30.00;;;;;;6276283;28;20753;-59
2021/01/05 12:52:38;;;;;;;7.83;7.23;;;26.90;30.50;;;;;;6272365;28;20224;-59
2021/01/05 12:55:40;;;;;;;8.40;7.70;;;26.90;31.00;;;;;;6275277;28;20227;-59
2021/01/05 12:58:42;;;;;;;8.23;7.53;;;27.50;30.50;;;;;;6275206;28;20223;-60
2021/01/05 13:01:45;;;;;;;8.53;7.67;;;28.00;29.50;;;;;;6275284;28;20529;-59
2021/01/05 13:04:48;;;;;;;7.47;6.80;;;28.70;29.40;;;;;;6275496;28;20199;-59
2021/01/05 13:07:50;;;;;;;7.67;7.07;;;28.60;28.90;;;;;;6275129;28;20628;-60
2021/01/05 13:10:53;;;;;;;9.90;9.00;;;28.40;29.60;;;;;;6274940;28;20758;-59
2021/01/05 13:13:58;;;;;;;9.73;8.90;;;28.00;29.50;;;;;;6275026;28;20203;-59
2021/01/05 13:17:01;;;;;;;8.90;8.17;;;27.60;29.70;;;;;;6274863;28;20195;-59
2021/01/05 13:20:04;;;;;;;8.40;7.70;;;27.40;29.90;;;;;;6274649;28;20232;-60
2021/01/05 13:23:06;;;;;;;8.60;7.90;;;25.30;31.70;;;;;;6274914;28;20227;-59
2021/01/05 13:26:11;;;;;;;7.87;7.17;;;22.40;35.10;;;;;;6275014;28;20227;-59
2021/01/05 13:29:17;;;;;;;7.23;6.57;;;20.10;38.60;;;;;;6274467;28;20675;-59
2021/01/05 13:32:24;;;;;;;7.10;6.47;;;18.10;42.00;;;;;;6274553;28;20474;-58
2021/01/05 13:35:27;;;;;;;7.77;7.07;;;16.50;45.00;;;;;;6274598;28;20470;-59
2021/01/05 13:38:29;;;;;;;7.80;7.00;;;15.20;48.00;;;;;;6269376;28;20974;-58
2021/01/05 13:41:33;;;;;;;6.70;6.00;;;14.10;51.40;;;;;;6273741;28;20474;-58
2021/01/05 13:44:36;;;;;;;8.07;6.80;;;13.10;54.20;;;;;;6274467;28;20542;-60
2021/01/05 13:47:39;;;;;;;8.60;7.80;;;12.30;57.70;;;;;;6274943;28;20967;-59
2021/01/05 13:50:41;;;;;;;8.07;7.27;;;11.80;59.70;;;;;;6266406;28;20475;-59
2021/01/05 13:53:44;;;;;;;7.17;6.47;;;11.40;63.60;;;;;;6250534;28;20477;-60
2021/01/05 13:56:52;;;;;;;6.63;5.90;;;10.90;66.30;;;;;;6250359;28;20482;-58
2021/01/05 13:59:55;;;;;;;7.70;6.80;;;10.40;69.50;;;;;;6250350;28;20479;-59
2021/01/05 14:02:58;;;;;;;6.13;5.63;;;10.00;73.60;;;;;;6249581;28;20467;-58
2021/01/05 14:06:00;;;;;;;7.90;7.13;;;9.70;78.10;;;;;;6259197;28;20466;-58
2021/01/05 14:09:04;;;;;;;7.27;6.57;;;9.50;80.90;;;;;;6271588;28;20474;-58
2021/01/05 14:12:07;;;;;;;7.27;6.23;;;9.20;83.80;;;;;;6271434;28;20481;-58
2021/01/05 14:15:10;;;;;;;7.47;6.73;;;9.00;87.10;;;;;;6271158;28;20471;-58
2021/01/05 14:18:13;;;;;;;8.77;6.60;;;9.00;89.30;;;;;;6272607;28;20470;-58
2021/01/05 14:21:25;;;;;;;7.40;6.70;;;9.00;90.50;;;;;;6271352;28;20474;-57
2021/01/05 14:24:28;;;;;;;7.60;6.80;;;8.80;91.10;;;;;;6274152;28;20466;-58
2021/01/05 14:27:30;;;;;;;7.87;6.97;;;8.50;92.00;;;;;;6271938;28;20504;-59
2021/01/05 14:30:32;;;;;;;8.47;7.57;;;8.30;92.60;;;;;;6274424;28;20465;-59
2021/01/05 14:33:35;;;;;;;11.90;9.00;;;8.20;93.50;;;;;;6274412;28;20469;-59
2021/01/05 14:36:38;;;;;;;12.50;9.50;;;8.10;94.10;;;;;;6274422;28;20461;-59
2021/01/05 14:39:40;;;;;;;11.03;8.90;;;8.00;94.50;;;;;;6274542;28;20458;-58
2021/01/05 14:42:42;;;;;;;8.43;7.63;;;8.00;95.00;;;;;;6274200;28;20482;-58
2021/01/05 14:45:49;;;;;;;8.87;6.87;;;7.90;95.00;;;;;;6264254;28;20542;-58
2021/01/05 14:48:52;;;;;;;8.47;7.40;;;7.80;95.20;;;;;;6272785;28;20489;-58
2021/01/05 14:51:57;;;;;;;7.87;7.17;;;7.70;95.70;;;;;;6270172;28;20601;-59
2021/01/05 14:54:59;;;;;;;8.73;7.47;;;7.60;96.00;;;;;;6273819;28;20807;-59
2021/01/05 14:58:06;;;;;;;8.53;7.70;;;7.60;96.40;;;;;;6273928;28;20893;-58
2021/01/05 15:01:09;;;;;;;9.50;8.60;;;7.50;96.60;;;;;;6273691;28;20479;-59
2021/01/05 15:04:13;;;;;;;10.20;8.47;;;7.40;97.00;;;;;;6273592;28;20470;-59
2021/01/05 15:07:15;;;;;;;9.83;7.67;;;7.30;97.10;;;;;;6273403;28;20834;-59
2021/01/05 15:10:17;;;;;;;9.40;7.80;;;7.30;97.40;;;;;;6273202;28;20473;-58
2021/01/05 15:13:20;;;;;;;8.30;7.40;;;7.20;97.70;;;;;;6272908;28;20469;-58
2021/01/05 15:16:22;;;;;;;8.13;7.30;;;7.10;98.00;;;;;;6277168;28;20466;-58
2021/01/05 15:19:26;;;;;;;10.10;9.03;;;7.10;98.10;;;;;;6277923;28;20973;-60
2021/01/05 15:22:29;;;;;;;8.57;7.77;;;7.10;98.40;;;;;;6277802;28;20482;-59
2021/01/05 15:25:31;;;;;;;9.10;8.20;;;7.10;98.60;;;;;;6277250;28;21038;-59
2021/01/05 15:28:33;;;;;;;13.43;10.00;;;7.00;98.70;;;;;;6275580;28;20958;-59
2021/01/05 15:31:41;;;;;;;11.17;10.07;;;7.00;99.00;;;;;;6278079;28;20485;-59
2021/01/05 15:34:44;;;;;;;11.00;9.40;;;7.00;99.20;;;;;;6278071;28;20470;-58
2021/01/05 15:37:46;;;;;;;11.80;10.60;;;6.90;99.30;;;;;;6277673;28;20543;-58
2021/01/05 15:40:49;;;;;;;12.27;10.23;;;6.90;99.50;;;;;;6277957;28;20958;-57
2021/01/05 15:43:51;;;;;;;12.20;10.27;;;6.80;99.70;;;;;;6278280;28;20478;-57
2021/01/05 15:46:54;;;;;;;13.60;11.50;;;6.80;99.90;;;;;;6273538;28;20453;-60
2021/01/05 15:49:57;;;;;;;13.70;10.87;;;6.60;99.90;;;;;;6275056;28;20481;-59
2021/01/05 15:53:01;;;;;;;14.60;11.73;;;6.60;99.90;;;;;;6253008;28;20458;-58
2021/01/05 15:56:03;;;;;;;16.20;12.23;;;6.60;99.90;;;;;;6253440;28;20455;-59